Time;durP1;ratioP1;P1;durP2;ratioP2;P2;SDS_P1;SDS_P2;PMS_P1;PMS_P2;Temp;Humidity;BMP_temperature;BMP_pressure;BME280_temperature;BME280_humidity;BME280_pressure;Samples;Min_cycle;Max_cycle;Signal;HPM_P1;HPM_P2
2022/11/06 00:00:42;;;;;;;1.33;0.93;;;5.20;99.90;;;;;;5076439;28;20551;-70
2022/11/06 00:03:08;;;;;;;4.72;0.90;;;5.20;99.90;;;;;;5074053;28;20040;-70
2022/11/06 00:08:28;;;;;;;2.75;1.10;;;5.10;99.90;;;;;;5075266;28;20634;-71
2022/11/06 00:10:53;;;;;;;2.58;1.17;;;5.20;99.90;;;;;;5076206;28;20028;-71
2022/11/06 00:13:19;;;;;;;2.45;0.98;;;5.10;99.90;;;;;;5075974;28;20051;-71
2022/11/06 00:15:45;;;;;;;2.83;1.10;;;5.10;99.90;;;;;;5076012;28;20547;-71
2022/11/06 00:18:10;;;;;;;2.88;1.00;;;5.20;99.90;;;;;;5074712;28;20045;-70
2022/11/06 00:20:36;;;;;;;4.10;1.00;;;5.20;99.90;;;;;;5074001;28;20487;-71
2022/11/06 00:23:02;;;;;;;3.33;1.10;;;5.10;99.90;;;;;;5055623;28;20102;-71
2022/11/06 00:25:28;;;;;;;2.08;0.98;;;4.80;99.90;;;;;;5054159;28;20457;-71
2022/11/06 00:27:53;;;;;;;3.25;1.15;;;4.70;99.90;;;;;;5055377;28;20139;-71
2022/11/06 00:30:19;;;;;;;2.75;1.42;;;4.50;99.90;;;;;;5069217;28;20112;-71
2022/11/06 00:32:46;;;;;;;3.65;1.30;;;4.70;99.90;;;;;;5068778;28;20143;-70
2022/11/06 00:35:12;;;;;;;3.58;1.20;;;4.70;99.90;;;;;;5057764;28;20044;-69
2022/11/06 00:37:38;;;;;;;4.65;1.75;;;4.90;99.90;;;;;;5055389;28;20037;-70
2022/11/06 00:40:05;;;;;;;4.07;1.75;;;4.90;99.90;;;;;;5055265;28;20523;-70
2022/11/06 00:42:30;;;;;;;6.53;2.38;;;4.60;99.90;;;;;;5054978;28;20504;-69
2022/11/06 00:44:56;;;;;;;3.92;1.90;;;4.30;99.90;;;;;;5053069;28;20040;-71
2022/11/06 00:47:22;;;;;;;4.97;1.75;;;4.20;99.90;;;;;;5068400;28;20408;-69
2022/11/06 00:49:48;;;;;;;6.25;2.30;;;4.30;99.90;;;;;;5069536;28;20037;-69
2022/11/06 00:52:13;;;;;;;4.10;1.92;;;4.20;99.90;;;;;;5053113;28;20135;-69
2022/11/06 00:54:39;;;;;;;6.32;1.80;;;4.00;99.90;;;;;;5052905;28;20041;-70
2022/11/06 00:57:05;;;;;;;2.35;1.48;;;3.70;99.90;;;;;;5052965;28;20048;-70
2022/11/06 00:59:31;;;;;;;3.67;1.48;;;3.70;99.90;;;;;;5093121;28;20365;-72
2022/11/06 01:01:57;;;;;;;3.17;1.10;;;3.80;99.90;;;;;;5072749;28;20032;-71
2022/11/06 01:04:24;;;;;;;4.35;1.38;;;4.00;99.90;;;;;;5072673;28;20036;-69
2022/11/06 01:06:51;;;;;;;3.90;1.33;;;3.90;99.90;;;;;;5073085;28;20492;-69
2022/11/06 01:09:21;;;;;;;4.05;1.45;;;3.90;99.90;;;;;;5074195;28;20512;-70
2022/11/06 01:11:49;;;;;;;2.38;1.13;;;4.10;99.90;;;;;;5071619;28;20040;-70
2022/11/06 01:14:17;;;;;;;3.47;1.35;;;4.20;99.90;;;;;;5072732;28;20579;-70
2022/11/06 01:16:43;;;;;;;4.18;1.13;;;4.40;99.90;;;;;;5072778;28;20399;-70
2022/11/06 01:19:12;;;;;;;4.57;1.92;;;4.60;99.90;;;;;;5073680;28;20048;-70
2022/11/06 01:21:41;;;;;;;9.93;2.33;;;4.70;99.90;;;;;;5072217;28;20028;-70
2022/11/06 01:24:15;;;;;;;7.13;2.50;;;4.70;99.90;;;;;;5072310;28;20079;-72
2022/11/06 01:26:41;;;;;;;5.18;2.92;;;4.70;99.90;;;;;;5072299;28;20455;-70
2022/11/06 01:29:09;;;;;;;4.50;2.28;;;4.70;99.90;;;;;;5074433;28;20098;-70
2022/11/06 01:31:35;;;;;;;6.25;2.28;;;4.50;99.90;;;;;;5073271;28;20044;-70
2022/11/06 01:34:02;;;;;;;4.97;1.75;;;4.50;99.90;;;;;;5072080;28;20055;-70
2022/11/06 01:36:32;;;;;;;4.13;1.75;;;4.40;99.90;;;;;;5070648;28;20040;-70
2022/11/06 01:39:00;;;;;;;4.07;1.50;;;4.40;99.90;;;;;;5073861;28;20488;-70
2022/11/06 01:41:32;;;;;;;2.75;1.30;;;4.30;99.90;;;;;;5069551;28;20488;-70
2022/11/06 01:44:02;;;;;;;3.85;1.75;;;4.50;99.90;;;;;;5055141;28;20066;-70
2022/11/06 01:46:33;;;;;;;4.05;1.90;;;4.30;99.90;;;;;;5050523;28;20040;-70
2022/11/06 01:49:03;;;;;;;4.97;1.58;;;3.90;99.90;;;;;;5053804;28;20035;-70
2022/11/06 01:51:34;;;;;;;3.92;1.50;;;3.90;99.90;;;;;;5054161;28;20059;-70
2022/11/06 01:54:03;;;;;;;5.43;1.60;;;4.00;99.90;;;;;;5053838;28;20052;-70
2022/11/06 01:56:29;;;;;;;3.05;1.10;;;4.20;99.90;;;;;;5069323;28;20045;-70
2022/11/06 01:58:55;;;;;;;2.28;1.30;;;4.30;99.90;;;;;;5052290;28;20040;-70
2022/11/06 02:01:21;;;;;;;2.95;1.20;;;4.30;99.90;;;;;;5054184;28;20060;-70
2022/11/06 02:04:24;;;;;;;2.00;1.10;;;4.20;99.90;;;;;;5053740;28;20041;-70
2022/11/06 02:06:50;;;;;;;1.23;0.90;;;4.30;99.90;;;;;;5046966;28;20091;-70
2022/11/06 02:09:17;;;;;;;2.33;0.80;;;4.30;99.90;;;;;;5054091;28;20122;-70
2022/11/06 02:11:46;;;;;;;3.30;1.13;;;4.40;99.90;;;;;;5054163;28;20055;-70
2022/11/06 02:14:18;;;;;;;3.40;1.35;;;4.40;99.90;;;;;;5053783;28;20060;-70
2022/11/06 02:16:59;;;;;;;2.17;0.90;;;4.30;99.90;;;;;;5069256;28;20037;-70
2022/11/06 02:19:46;;;;;;;5.10;1.83;;;4.20;99.90;;;;;;5073172;28;20495;-70
2022/11/06 02:22:30;;;;;;;3.72;1.75;;;4.00;99.90;;;;;;5072817;28;20369;-70
2022/11/06 02:25:11;;;;;;;3.58;1.30;;;3.80;99.90;;;;;;5073717;28;20063;-71
2022/11/06 02:27:43;;;;;;;2.42;1.05;;;3.80;99.90;;;;;;5073764;28;20438;-70
2022/11/06 02:30:10;;;;;;;3.47;1.20;;;4.00;99.90;;;;;;5073592;28;20480;-71
2022/11/06 02:32:55;;;;;;;2.83;1.45;;;4.00;99.90;;;;;;5072319;28;20040;-70
2022/11/06 02:35:28;;;;;;;3.47;1.10;;;4.20;99.90;;;;;;5072490;28;20052;-70
2022/11/06 02:38:22;;;;;;;4.00;1.20;;;4.40;99.90;;;;;;5073868;28;20077;-70
2022/11/06 02:40:56;;;;;;;4.50;1.13;;;4.40;99.90;;;;;;5073085;28;20123;-70
2022/11/06 02:43:27;;;;;;;4.35;1.52;;;4.30;99.90;;;;;;5073748;28;20037;-70
2022/11/06 02:46:02;;;;;;;3.75;1.02;;;4.50;99.90;;;;;;5072347;28;20044;-71
2022/11/06 02:48:34;;;;;;;3.20;1.35;;;4.40;99.90;;;;;;5073697;28;20040;-70
2022/11/06 02:51:04;;;;;;;2.50;1.10;;;4.10;99.90;;;;;;5073733;28;20089;-70
2022/11/06 02:53:32;;;;;;;4.25;1.10;;;4.20;99.90;;;;;;5073603;28;20440;-70
2022/11/06 02:56:09;;;;;;;2.75;1.55;;;4.10;99.90;;;;;;5073521;28;20032;-70
2022/11/06 02:58:45;;;;;;;2.38;1.42;;;4.10;99.90;;;;;;5073595;28;20064;-70
2022/11/06 03:01:34;;;;;;;3.42;1.63;;;4.00;99.90;;;;;;5073646;28;20044;-70
2022/11/06 03:04:09;;;;;;;2.10;1.27;;;3.80;99.90;;;;;;5069956;28;20554;-71
2022/11/06 03:06:40;;;;;;;6.65;1.60;;;3.80;99.90;;;;;;5073555;28;20040;-70
2022/11/06 03:09:08;;;;;;;2.88;1.45;;;3.90;99.90;;;;;;5073563;28;20062;-70
2022/11/06 03:11:37;;;;;;;6.13;1.67;;;4.00;99.90;;;;;;5074075;28;20048;-70
2022/11/06 03:14:12;;;;;;;4.63;1.65;;;4.10;99.90;;;;;;5075841;28;20052;-70
2022/11/06 03:17:13;;;;;;;2.00;1.17;;;4.10;99.90;;;;;;5077176;28;20514;-70
2022/11/06 03:19:44;;;;;;;4.30;1.38;;;4.10;99.90;;;;;;5077255;28;20531;-71
2022/11/06 03:22:22;;;;;;;3.05;1.83;;;4.10;99.90;;;;;;5077099;28;20036;-70
2022/11/06 03:25:08;;;;;;;3.13;1.75;;;4.10;99.90;;;;;;5076896;28;20029;-70
2022/11/06 03:28:03;;;;;;;5.05;1.35;;;4.20;99.90;;;;;;5076882;28;20048;-70
2022/11/06 03:30:33;;;;;;;1.80;1.17;;;4.30;99.90;;;;;;5076325;28;20033;-70
2022/11/06 03:33:19;;;;;;;2.40;1.30;;;4.30;99.90;;;;;;5076808;28;20404;-70
2022/11/06 03:35:50;;;;;;;2.70;1.30;;;4.50;99.90;;;;;;5075477;28;20041;-70
2022/11/06 03:38:18;;;;;;;4.35;1.55;;;4.50;99.90;;;;;;5075494;28;20032;-70
2022/11/06 03:40:48;;;;;;;2.88;1.25;;;4.60;99.90;;;;;;5075386;28;20040;-71
2022/11/06 03:43:19;;;;;;;8.45;1.45;;;4.50;99.90;;;;;;5075436;28;20036;-71
2022/11/06 03:45:46;;;;;;;3.40;1.33;;;4.40;99.90;;;;;;5076675;28;20044;-70
2022/11/06 03:48:27;;;;;;;2.25;1.40;;;4.30;99.90;;;;;;5076528;28;20067;-70
2022/11/06 03:51:11;;;;;;;2.33;1.45;;;4.30;99.90;;;;;;5075179;28;20062;-70
2022/11/06 03:54:05;;;;;;;2.78;1.27;;;4.40;99.90;;;;;;5075725;28;20052;-70
2022/11/06 03:56:43;;;;;;;3.17;1.33;;;4.30;99.90;;;;;;5067362;28;20115;-71
2022/11/06 03:59:12;;;;;;;4.18;1.35;;;4.30;99.90;;;;;;5076360;28;20048;-71
2022/11/06 04:01:44;;;;;;;5.07;1.55;;;4.30;99.90;;;;;;5076322;28;20071;-70
2022/11/06 04:04:25;;;;;;;4.20;1.02;;;4.30;99.90;;;;;;5076341;28;20044;-70
2022/11/06 04:06:53;;;;;;;1.63;0.95;;;4.50;99.90;;;;;;5076148;28;20087;-70
2022/11/06 04:14:56;;;;;;;2.67;1.20;;;4.10;99.90;;;;;;5075934;28;20059;-70
2022/11/06 04:17:25;;;;;;;3.25;1.33;;;3.90;99.90;;;;;;5075802;28;20067;-70
2022/11/06 04:19:57;;;;;;;5.03;1.42;;;3.80;99.90;;;;;;5075923;28;20055;-70
2022/11/06 04:22:33;;;;;;;8.10;1.90;;;3.90;99.90;;;;;;5075447;28;20044;-70
2022/11/06 04:28:21;;;;;;;4.32;1.65;;;3.90;99.90;;;;;;5075924;28;20031;-70
2022/11/06 04:31:12;;;;;;;2.65;1.30;;;3.90;99.90;;;;;;5091432;28;20051;-70
2022/11/06 04:34:00;;;;;;;3.83;1.20;;;3.80;99.90;;;;;;5075514;28;20098;-70
2022/11/06 04:36:38;;;;;;;3.80;1.55;;;4.00;99.90;;;;;;5075318;28;20032;-70
2022/11/06 04:39:21;;;;;;;2.95;1.50;;;4.10;99.90;;;;;;5074374;28;20491;-70
2022/11/06 04:42:10;;;;;;;3.33;1.40;;;4.20;99.90;;;;;;5075580;28;20033;-70
2022/11/06 04:44:41;;;;;;;3.33;1.45;;;4.20;99.90;;;;;;5074417;28;20054;-70
2022/11/06 04:47:12;;;;;;;4.57;1.42;;;4.10;99.90;;;;;;5075593;28;20384;-70
2022/11/06 04:49:41;;;;;;;5.47;1.20;;;4.10;99.90;;;;;;5075421;28;20047;-70
2022/11/06 04:52:11;;;;;;;4.22;1.45;;;4.10;99.90;;;;;;5075236;28;20044;-70
2022/11/06 04:54:37;;;;;;;5.28;2.17;;;4.20;99.90;;;;;;5074091;28;20040;-70
2022/11/06 04:57:03;;;;;;;2.97;1.20;;;4.30;99.90;;;;;;5075290;28;20036;-70
2022/11/06 04:59:34;;;;;;;4.07;1.70;;;4.30;99.90;;;;;;5075343;28;20085;-70
2022/11/06 05:01:59;;;;;;;2.22;1.45;;;4.30;99.90;;;;;;5075174;28;20043;-70
2022/11/06 05:04:25;;;;;;;3.25;1.13;;;4.20;99.90;;;;;;5075301;28;20028;-70
2022/11/06 05:06:51;;;;;;;2.97;1.40;;;4.00;99.90;;;;;;5073842;28;20055;-70
2022/11/06 05:09:17;;;;;;;5.28;1.20;;;4.00;99.90;;;;;;5074891;28;20021;-70
2022/11/06 05:11:43;;;;;;;3.65;1.48;;;3.90;99.90;;;;;;5075030;28;20049;-70
2022/11/06 05:14:08;;;;;;;5.03;1.15;;;4.00;99.90;;;;;;5074862;28;20408;-70
2022/11/06 05:16:34;;;;;;;8.27;1.55;;;4.20;99.90;;;;;;5074800;28;20043;-70
2022/11/06 05:19:00;;;;;;;2.17;1.13;;;4.20;99.90;;;;;;5074861;28;20037;-70
2022/11/06 05:24:10;;;;;;;5.20;1.25;;;4.40;99.90;;;;;;5074688;28;20116;-70
2022/11/06 05:26:36;;;;;;;4.68;1.58;;;4.50;99.90;;;;;;5074765;28;20060;-70
2022/11/06 05:29:01;;;;;;;7.68;1.85;;;4.50;99.90;;;;;;5073311;28;20043;-70
2022/11/06 05:31:27;;;;;;;8.95;2.25;;;4.60;99.90;;;;;;5074515;28;20039;-70
2022/11/06 05:33:53;;;;;;;12.82;3.35;;;4.60;99.90;;;;;;5072542;28;20097;-70
2022/11/06 05:36:18;;;;;;;5.93;2.00;;;4.50;99.90;;;;;;5074477;28;20040;-70
2022/11/06 05:38:44;;;;;;;3.53;1.50;;;4.00;99.90;;;;;;5072632;28;20045;-70
2022/11/06 05:41:10;;;;;;;4.60;1.70;;;3.80;99.90;;;;;;5073115;28;20039;-70
2022/11/06 05:43:36;;;;;;;7.07;1.75;;;3.70;99.90;;;;;;5073008;28;20044;-70
2022/11/06 05:46:01;;;;;;;4.15;1.75;;;3.80;99.90;;;;;;5071275;28;20845;-70
2022/11/06 05:48:28;;;;;;;5.35;1.20;;;3.80;99.90;;;;;;5070426;28;20036;-70
2022/11/06 05:51:03;;;;;;;3.13;1.17;;;4.00;99.90;;;;;;5072281;28;20098;-70
2022/11/06 05:53:30;;;;;;;3.33;1.25;;;4.00;99.90;;;;;;5074227;28;20094;-70
2022/11/06 05:55:56;;;;;;;2.38;1.20;;;4.00;99.90;;;;;;5074289;28;20467;-70
2022/11/06 05:58:21;;;;;;;1.92;1.08;;;3.90;99.90;;;;;;5072896;28;20100;-70
2022/11/06 06:00:47;;;;;;;5.78;1.15;;;4.10;99.90;;;;;;5074136;28;20043;-70
2022/11/06 06:03:13;;;;;;;2.67;0.80;;;4.10;99.90;;;;;;5072697;28;20419;-70
2022/11/06 06:05:39;;;;;;;2.38;1.17;;;4.00;99.90;;;;;;5072607;28;20040;-70
2022/11/06 06:08:05;;;;;;;3.65;1.40;;;4.10;99.90;;;;;;5073936;28;20036;-70
2022/11/06 06:10:31;;;;;;;3.63;1.42;;;4.30;99.90;;;;;;5073952;28;20430;-70
2022/11/06 06:12:56;;;;;;;2.80;1.23;;;4.50;99.90;;;;;;5073859;28;20047;-70
2022/11/06 06:15:22;;;;;;;4.70;1.65;;;4.80;99.90;;;;;;5073862;28;20043;-70
2022/11/06 06:17:48;;;;;;;7.05;1.92;;;4.90;99.90;;;;;;5074034;28;20029;-71
2022/11/06 06:20:14;;;;;;;4.95;1.38;;;5.00;99.90;;;;;;5073525;28;20418;-70
2022/11/06 06:22:40;;;;;;;4.20;1.67;;;5.00;99.90;;;;;;5073906;28;20044;-71
2022/11/06 06:25:06;;;;;;;7.28;1.40;;;3.90;99.90;;;;;;5074156;28;20198;-71
2022/11/06 06:27:32;;;;;;;5.05;1.90;;;5.10;99.90;;;;;;5073891;28;20047;-71
2022/11/06 06:29:58;;;;;;;4.57;1.60;;;5.00;99.90;;;;;;5072501;28;20765;-71
2022/11/06 06:32:24;;;;;;;4.15;2.03;;;5.00;99.90;;;;;;5072521;28;20032;-71
2022/11/06 06:34:49;;;;;;;8.75;3.05;;;5.10;99.90;;;;;;5072056;28;20086;-70
2022/11/06 06:37:15;;;;;;;3.67;2.00;;;5.00;99.90;;;;;;5071525;28;20132;-71
2022/11/06 06:39:41;;;;;;;4.03;1.50;;;5.10;99.90;;;;;;5073564;28;20082;-70
2022/11/06 06:42:06;;;;;;;6.60;2.10;;;5.00;99.90;;;;;;5073883;28;20070;-70
2022/11/06 06:44:32;;;;;;;2.25;1.17;;;4.90;99.90;;;;;;5074058;28;20119;-70
2022/11/06 06:46:58;;;;;;;4.18;1.30;;;4.80;99.90;;;;;;5077854;28;20399;-70
2022/11/06 06:49:24;;;;;;;2.05;0.93;;;4.80;99.90;;;;;;5077523;28;20649;-70
2022/11/06 06:51:50;;;;;;;1.70;1.13;;;4.80;99.90;;;;;;5076247;28;20147;-70
2022/11/06 06:54:15;;;;;;;2.50;1.60;;;4.80;99.90;;;;;;5077155;28;20563;-70
2022/11/06 06:56:42;;;;;;;3.38;1.50;;;;;;;;;;5076211;28;20037;-72
2022/11/06 06:59:07;;;;;;;4.45;1.77;;;5.00;99.90;;;;;;5075874;28;20064;-70
2022/11/06 07:01:33;;;;;;;3.72;1.63;;;5.10;99.90;;;;;;5077172;28;20043;-69
2022/11/06 07:03:59;;;;;;;8.75;2.65;;;5.40;99.90;;;;;;5077058;28;20086;-69
2022/11/06 07:06:25;;;;;;;6.75;2.63;;;5.60;99.90;;;;;;5077204;28;20071;-69
2022/11/06 07:08:54;;;;;;;4.47;1.75;;;5.60;99.90;;;;;;5077268;28;20040;-69
2022/11/06 07:11:20;;;;;;;5.47;1.73;;;5.90;99.90;;;;;;5077248;28;20028;-71
2022/11/06 07:13:47;;;;;;;5.90;2.78;;;6.10;99.90;;;;;;5077025;28;20097;-70
2022/11/06 07:16:13;;;;;;;6.10;2.63;;;6.10;99.90;;;;;;5076915;28;20044;-70
2022/11/06 07:18:39;;;;;;;3.47;1.95;;;5.90;99.90;;;;;;5077016;28;20761;-70
2022/11/06 07:21:11;;;;;;;4.65;2.00;;;6.00;99.90;;;;;;5076962;28;20040;-70
2022/11/06 07:23:37;;;;;;;3.78;1.85;;;5.80;99.90;;;;;;5076869;28;20024;-70
2022/11/06 07:26:04;;;;;;;4.00;1.80;;;5.90;99.90;;;;;;5076913;28;20045;-70
2022/11/06 07:28:31;;;;;;;4.78;2.10;;;6.10;99.90;;;;;;5076908;28;20047;-70
2022/11/06 07:31:01;;;;;;;5.53;2.45;;;6.20;99.90;;;;;;5076743;28;20044;-70
2022/11/06 07:33:28;;;;;;;3.70;1.90;;;6.20;99.90;;;;;;5076758;28;20040;-70
2022/11/06 07:35:54;;;;;;;5.47;2.03;;;6.20;99.90;;;;;;5075945;28;20051;-70
2022/11/06 07:38:20;;;;;;;5.38;1.80;;;6.70;99.90;;;;;;5074748;28;20689;-70
2022/11/06 07:40:46;;;;;;;3.42;1.90;;;7.00;99.90;;;;;;5075701;28;20119;-70
2022/11/06 07:43:12;;;;;;;5.88;1.75;;;7.10;99.90;;;;;;5076245;28;20129;-71
2022/11/06 07:45:38;;;;;;;3.50;1.70;;;6.70;99.90;;;;;;5076565;28;20036;-71
2022/11/06 07:48:05;;;;;;;3.92;1.52;;;6.70;99.90;;;;;;5076568;28;20051;-71
2022/11/06 07:50:31;;;;;;;4.25;1.67;;;7.00;99.90;;;;;;5076691;28;20028;-71
2022/11/06 07:53:00;;;;;;;3.30;1.60;;;7.30;99.90;;;;;;5075106;28;20125;-71
2022/11/06 07:55:25;;;;;;;2.67;1.63;;;7.90;99.90;;;;;;5076494;28;20039;-70
2022/11/06 07:57:51;;;;;;;9.48;4.03;;;8.50;99.90;;;;;;5074267;28;20028;-71
2022/11/06 08:00:17;;;;;;;4.68;2.72;;;8.90;99.90;;;;;;5074980;28;20484;-71
2022/11/06 08:02:43;;;;;;;2.60;1.70;;;9.10;99.90;;;;;;5076306;28;20051;-71
2022/11/06 08:05:09;;;;;;;4.68;2.65;;;9.40;99.90;;;;;;5092608;28;20804;-71
2022/11/06 08:07:35;;;;;;;3.90;2.38;;;9.40;99.90;;;;;;5075787;28;20036;-71
2022/11/06 08:10:00;;;;;;;3.22;1.90;;;9.30;99.90;;;;;;5079695;28;20067;-71
2022/11/06 08:12:26;;;;;;;2.53;1.85;;;9.20;99.90;;;;;;5091817;28;20458;-71
2022/11/06 08:14:52;;;;;;;3.92;1.95;;;9.20;99.90;;;;;;5075690;28;20051;-70
2022/11/06 08:17:17;;;;;;;4.85;3.50;;;9.00;99.90;;;;;;5075887;28;20028;-70
2022/11/06 08:19:43;;;;;;;9.13;5.20;;;9.00;99.90;;;;;;5074548;28;20040;-71
2022/11/06 08:22:09;;;;;;;8.65;3.30;;;9.50;99.90;;;;;;5075055;28;20040;-69
2022/11/06 08:24:35;;;;;;;3.10;2.03;;;9.30;99.90;;;;;;5095930;28;20051;-69
2022/11/06 08:27:01;;;;;;;4.65;2.88;;;8.90;99.90;;;;;;5086646;28;20029;-68
2022/11/06 08:29:27;;;;;;;5.13;2.28;;;8.60;99.90;;;;;;5072950;28;20037;-68
2022/11/06 08:31:53;;;;;;;4.07;1.88;;;8.30;99.90;;;;;;5073561;28;20561;-69
2022/11/06 08:34:19;;;;;;;5.25;2.42;;;8.10;99.90;;;;;;5091470;28;20056;-71
2022/11/06 08:36:49;;;;;;;4.97;2.80;;;8.10;99.90;;;;;;5094294;28;20089;-70
2022/11/06 08:39:15;;;;;;;4.55;2.22;;;8.40;99.90;;;;;;5095264;28;20044;-70
2022/11/06 08:41:41;;;;;;;5.00;2.20;;;8.50;99.90;;;;;;5094423;28;20040;-69
2022/11/06 08:44:07;;;;;;;3.88;2.28;;;8.70;99.90;;;;;;5078670;28;20051;-70
2022/11/06 08:46:33;;;;;;;4.45;2.13;;;8.80;99.90;;;;;;5072909;28;20040;-69
2022/11/06 08:48:59;;;;;;;4.30;2.20;;;9.00;99.90;;;;;;5072572;28;20032;-69
2022/11/06 08:51:25;;;;;;;4.15;2.22;;;9.40;99.90;;;;;;5073743;28;20527;-70
2022/11/06 08:53:51;;;;;;;4.25;2.38;;;9.10;99.90;;;;;;5083028;28;20051;-69
2022/11/06 08:56:17;;;;;;;4.75;2.10;;;9.00;99.90;;;;;;5092795;28;20036;-69
2022/11/06 08:58:43;;;;;;;4.07;2.70;;;8.70;99.90;;;;;;5093239;28;20040;-70
2022/11/06 09:01:09;;;;;;;6.65;3.30;;;8.50;99.90;;;;;;5091931;28;20032;-71
2022/11/06 09:03:34;;;;;;;6.07;2.90;;;8.70;99.90;;;;;;5076578;28;20040;-69
2022/11/06 09:06:00;;;;;;;7.53;3.70;;;8.70;99.90;;;;;;5091422;28;20036;-71
2022/11/06 09:08:26;;;;;;;5.00;2.92;;;8.80;99.90;;;;;;5092887;28;20488;-71
2022/11/06 09:10:52;;;;;;;21.10;11.32;;;9.30;99.90;;;;;;5092877;28;20036;-71
2022/11/06 09:13:17;;;;;;;16.45;9.23;;;9.60;99.90;;;;;;5079718;28;20048;-68
2022/11/06 09:15:43;;;;;;;9.27;4.43;;;9.60;99.90;;;;;;5072700;28;20045;-71
2022/11/06 09:18:11;;;;;;;10.25;4.82;;;9.70;99.90;;;;;;5072876;28;20037;-70
2022/11/06 09:20:37;;;;;;;15.48;7.78;;;9.80;99.90;;;;;;5073079;28;20036;-70
2022/11/06 09:23:06;;;;;;;38.35;19.42;;;10.10;99.90;;;;;;5072240;28;20025;-70
2022/11/06 09:25:31;;;;;;;18.00;8.95;;;10.30;99.90;;;;;;5073685;28;20127;-68
2022/11/06 09:27:58;;;;;;;27.13;12.23;;;10.30;99.90;;;;;;5072122;28;20119;-71
2022/11/06 09:30:26;;;;;;;14.50;6.28;;;10.50;99.90;;;;;;5072882;28;20507;-71
2022/11/06 09:32:54;;;;;;;9.43;5.40;;;10.40;99.90;;;;;;5074100;28;20048;-72
2022/11/06 09:35:22;;;;;;;12.02;5.50;;;10.30;99.90;;;;;;5105786;28;20035;-69
2022/11/06 09:37:48;;;;;;;11.82;6.78;;;10.50;99.90;;;;;;5082327;28;20044;-71
2022/11/06 09:40:20;;;;;;;7.47;4.82;;;10.40;99.90;;;;;;5086955;28;20047;-71
2022/11/06 09:43:17;;;;;;;9.80;5.80;;;10.60;99.90;;;;;;5071839;28;20495;-71
2022/11/06 09:45:43;;;;;;;5.18;3.75;;;;;;;;;;5071916;28;20086;-71
2022/11/06 09:48:28;;;;;;;7.85;4.50;;;10.70;99.90;;;;;;5073209;28;20040;-69
2022/11/06 09:51:25;;;;;;;7.68;4.35;;;10.90;99.90;;;;;;5088853;28;20050;-69
2022/11/06 09:53:57;;;;;;;5.43;3.30;;;11.00;99.90;;;;;;5077268;28;20105;-69
2022/11/06 09:56:28;;;;;;;4.20;3.10;;;10.80;99.90;;;;;;5090592;28;20389;-69
2022/11/06 09:58:55;;;;;;;5.57;3.67;;;10.70;99.90;;;;;;5069368;28;20051;-71
2022/11/06 10:01:40;;;;;;;6.55;4.28;;;10.80;99.90;;;;;;5052329;28;20033;-71
2022/11/06 10:04:11;;;;;;;5.57;3.13;;;10.50;99.90;;;;;;5071542;28;20052;-71
2022/11/06 10:06:37;;;;;;;5.38;3.30;;;10.20;99.90;;;;;;5091359;28;20059;-71
2022/11/06 10:09:06;;;;;;;12.48;6.82;;;10.10;99.90;;;;;;5091230;28;20074;-71
2022/11/06 10:11:50;;;;;;;9.15;4.95;;;10.00;99.90;;;;;;5091607;28;20047;-71
2022/11/06 10:14:42;;;;;;;6.00;3.28;;;9.80;99.90;;;;;;5076552;28;20119;-71
2022/11/06 10:17:38;;;;;;;36.17;16.95;;;9.60;99.90;;;;;;5071440;28;20081;-71
2022/11/06 10:20:22;;;;;;;6.30;3.42;;;9.50;99.90;;;;;;5073265;28;20480;-72
2022/11/06 10:23:11;;;;;;;4.95;2.92;;;9.50;99.90;;;;;;5073943;28;20128;-72
2022/11/06 10:25:54;;;;;;;3.88;2.63;;;9.40;99.90;;;;;;5070146;28;20039;-71
2022/11/06 10:28:22;;;;;;;4.28;3.13;;;9.10;99.90;;;;;;5070715;28;20046;-71
2022/11/06 10:30:57;;;;;;;3.85;2.25;;;9.20;99.90;;;;;;5070925;28;20036;-70
2022/11/06 10:33:45;;;;;;;4.18;2.65;;;9.10;99.90;;;;;;5069414;28;20075;-71
2022/11/06 10:36:22;;;;;;;4.25;2.28;;;9.30;99.90;;;;;;5093558;28;20504;-72
2022/11/06 10:38:49;;;;;;;3.33;2.10;;;9.60;99.90;;;;;;5093251;28;20032;-72
2022/11/06 10:41:23;;;;;;;6.35;2.55;;;9.90;99.90;;;;;;5078814;28;20086;-70
2022/11/06 10:43:53;;;;;;;4.70;2.40;;;10.00;99.90;;;;;;5071305;28;20040;-72
2022/11/06 10:46:33;;;;;;;4.68;2.83;;;9.70;99.90;;;;;;5071798;28;20041;-72
2022/11/06 10:49:20;;;;;;;4.43;2.78;;;9.80;99.90;;;;;;5073078;28;20090;-72
2022/11/06 10:52:11;;;;;;;5.50;2.83;;;9.80;99.90;;;;;;5047454;28;20032;-72
2022/11/06 10:55:01;;;;;;;6.50;2.70;;;9.80;99.90;;;;;;5090184;28;20056;-72
2022/11/06 10:57:49;;;;;;;11.02;3.47;;;9.80;99.90;;;;;;5089755;28;20043;-72
2022/11/06 11:00:15;;;;;;;4.78;2.40;;;9.90;99.90;;;;;;5092853;28;20032;-72
2022/11/06 11:02:53;;;;;;;6.50;2.97;;;9.70;99.90;;;;;;5092129;28;20036;-72
2022/11/06 11:05:23;;;;;;;7.05;4.45;;;9.60;99.90;;;;;;5088350;28;20036;-72
2022/11/06 11:07:50;;;;;;;5.13;3.40;;;9.70;99.90;;;;;;5090696;28;20094;-72
2022/11/06 11:10:22;;;;;;;4.78;3.25;;;9.80;99.90;;;;;;5090338;28;20036;-72
2022/11/06 11:12:53;;;;;;;3.70;2.65;;;9.70;99.90;;;;;;5092212;28;20040;-72
2022/11/06 11:15:22;;;;;;;6.57;3.38;;;9.70;99.90;;;;;;5092151;28;20538;-72
2022/11/06 11:18:08;;;;;;;6.00;2.90;;;9.70;99.90;;;;;;5090792;28;20518;-72
2022/11/06 11:20:37;;;;;;;4.03;3.08;;;9.40;99.90;;;;;;5083409;28;20503;-72
2022/11/06 11:23:13;;;;;;;6.50;3.78;;;9.20;99.90;;;;;;5073319;28;20054;-72
2022/11/06 11:25:43;;;;;;;5.97;2.80;;;9.30;99.90;;;;;;5079995;28;20123;-72
2022/11/06 11:28:28;;;;;;;5.40;3.17;;;9.30;99.90;;;;;;5090050;28;20032;-72
2022/11/06 11:31:15;;;;;;;12.90;4.82;;;9.20;99.90;;;;;;5090376;28;20055;-71
2022/11/06 11:33:50;;;;;;;7.10;4.63;;;9.10;99.90;;;;;;5078632;28;20668;-72
2022/11/06 11:36:16;;;;;;;9.85;5.32;;;9.00;99.90;;;;;;5083737;28;20043;-72
2022/11/06 11:38:44;;;;;;;8.07;3.78;;;9.00;99.90;;;;;;5094776;28;20036;-71
2022/11/06 11:41:18;;;;;;;6.78;3.80;;;8.90;99.90;;;;;;5094784;28;20067;-70
2022/11/06 11:44:09;;;;;;;8.98;4.57;;;8.90;99.90;;;;;;5094750;28;20526;-72
2022/11/06 11:46:46;;;;;;;8.10;4.88;;;9.00;99.90;;;;;;5091183;28;20044;-72
2022/11/06 11:49:32;;;;;;;7.18;4.50;;;9.00;99.90;;;;;;5094813;28;20040;-72
2022/11/06 11:52:03;;;;;;;9.45;5.20;;;9.00;99.90;;;;;;5096820;28;20034;-72
2022/11/06 11:54:34;;;;;;;10.35;4.97;;;8.90;99.90;;;;;;5094658;28;20051;-71
2022/11/06 11:57:16;;;;;;;;;;;9.00;99.90;;;;;;5074111;28;20025;-72
2022/11/06 12:00:05;;;;;;;14.35;7.45;;;9.10;99.90;;;;;;5074585;28;20257;-71
2022/11/06 12:02:41;;;;;;;12.60;6.20;;;9.10;99.90;;;;;;5106886;28;20400;-71
2022/11/06 12:05:12;;;;;;;10.63;5.22;;;9.20;99.90;;;;;;5063846;28;20095;-71
2022/11/06 12:07:46;;;;;;;8.02;5.20;;;9.20;99.90;;;;;;5053761;28;20124;-72
2022/11/06 12:10:37;;;;;;;11.27;5.25;;;9.30;99.90;;;;;;5054118;28;20060;-71
2022/11/06 12:13:20;;;;;;;5.60;3.63;;;9.40;99.90;;;;;;5045139;28;20448;-72
2022/11/06 12:15:56;;;;;;;9.07;4.22;;;9.40;99.90;;;;;;5088908;28;20082;-71
2022/11/06 12:18:47;;;;;;;10.52;5.03;;;9.40;99.90;;;;;;5074034;28;20476;-71
2022/11/06 12:21:22;;;;;;;6.07;4.15;;;9.50;99.90;;;;;;5073621;28;20591;-72
2022/11/06 12:24:13;;;;;;;9.82;4.28;;;9.40;99.90;;;;;;5073217;28;20388;-71
2022/11/06 12:27:14;;;;;;;10.77;5.07;;;9.40;99.90;;;;;;5081541;28;20055;-72
2022/11/06 12:29:48;;;;;;;9.50;5.10;;;9.50;99.90;;;;;;5092409;28;20036;-71
2022/11/06 12:32:39;;;;;;;8.13;4.10;;;9.70;99.90;;;;;;5093020;28;20052;-72
2022/11/06 12:35:36;;;;;;;6.95;4.18;;;9.70;99.90;;;;;;5094526;28;20449;-71
2022/11/06 12:38:27;;;;;;;10.63;4.35;;;9.90;99.90;;;;;;5094157;28;20103;-72
2022/11/06 12:40:56;;;;;;;;;;;10.10;99.90;;;;;;5094144;28;20093;-72
2022/11/06 12:43:45;;;;;;;7.65;4.43;;;10.20;99.90;;;;;;5078777;28;19915;-71
2022/11/06 12:46:36;;;;;;;8.25;4.20;;;10.20;99.90;;;;;;5075151;28;20036;-72
2022/11/06 12:49:14;;;;;;;7.90;4.03;;;10.00;99.90;;;;;;5074582;28;20036;-72
2022/11/06 12:52:23;;;;;;;8.13;3.80;;;10.00;99.90;;;;;;5073406;28;20082;-71
2022/11/06 12:55:21;;;;;;;4.45;3.40;;;10.00;99.90;;;;;;5069831;28;20055;-72
2022/11/06 12:58:08;;;;;;;6.32;3.35;;;10.10;99.90;;;;;;5093425;28;20040;-71
2022/11/06 13:00:46;;;;;;;6.40;4.00;;;10.00;99.90;;;;;;5094207;28;20493;-72
2022/11/06 13:03:36;;;;;;;5.95;3.92;;;9.90;99.90;;;;;;5092615;28;20093;-72
2022/11/06 13:06:27;;;;;;;5.40;3.85;;;10.30;99.90;;;;;;5093516;28;20058;-71
2022/11/06 13:09:23;;;;;;;7.47;4.25;;;10.30;99.90;;;;;;5091793;28;20036;-71
2022/11/06 13:12:06;;;;;;;8.35;4.45;;;10.10;99.90;;;;;;5091233;28;20036;-71
2022/11/06 13:15:03;;;;;;;6.93;4.05;;;10.10;99.90;;;;;;5091932;28;20047;-71
2022/11/06 13:17:44;;;;;;;7.75;3.67;;;10.00;99.90;;;;;;5093376;28;20074;-72
2022/11/06 13:20:31;;;;;;;6.43;3.80;;;10.10;99.90;;;;;;5092162;28;20535;-72
2022/11/06 13:23:21;;;;;;;7.15;3.83;;;10.10;99.90;;;;;;5094026;28;20047;-71
2022/11/06 13:26:11;;;;;;;8.60;4.35;;;10.00;99.90;;;;;;5092613;28;20544;-71
2022/11/06 13:28:48;;;;;;;6.78;3.83;;;10.00;99.90;;;;;;5094582;28;20093;-72
2022/11/06 13:31:19;;;;;;;6.57;4.07;;;10.30;99.90;;;;;;5094915;28;20036;-72
2022/11/06 13:33:55;;;;;;;6.00;3.75;;;10.30;99.90;;;;;;5085377;28;20512;-72
2022/11/06 13:36:22;;;;;;;8.35;4.38;;;10.30;99.90;;;;;;5073223;28;20039;-72